KIWD Weather

FAA AWOS (Automated Weather Observing System)

Weather observations for the last 3 days click here.

KIWD

METAR
KIWD 220956Z AUTO 04007KT 8SM -SN OVC008 M02/M03 A2999 RMK AO2 SNB06 SLP173 P0000 T10221033 FZRANO
KIWD 220940Z AUTO 05006KT 9SM -SN OVC008 M02/M03 A3000 RMK AO2 SNB06 P0000 FZRANO
KIWD 220856Z AUTO 04005KT 10SM OVC012 M02/M03 A3001 RMK AO2 SNE44 SLP179 P0000 60000 T10221028 56005 FZRANO
TAF
KIWD 220520Z 2206/2306 06007KT 5SM BR OVC003 FM220900 06007KT P6SM OVC003 FM221100 06007KT P6SM VCSH OVC003 FM221600 05011G19KT P6SM -FZDZ OVC003 FM221800 04012G22KT 4SM -FZRA BR OVC008 FM222000 04013G24KT 3SM -SN BR OVC003 FM230000 04014G27KT 2SM -SN BR OVC003